Time;durP1;ratioP1;P1;durP2;ratioP2;P2;SDS_P1;SDS_P2;PMS_P1;PMS_P2;Temp;Humidity;BMP_temperature;BMP_pressure;BME280_temperature;BME280_humidity;BME280_pressure;Samples;Min_cycle;Max_cycle;Signal;HPM_P1;HPM_P2
2021/07/08 01:47:52;;;;;;;3.07;2.77;;;19.20;99.90;;;;;;4607340;23;20479;-93
2021/07/08 01:56:15;;;;;;;4.20;2.97;;;19.10;99.90;;;;;;4900270;29;20426;-94
2021/07/08 02:02:01;;;;;;;3.47;2.30;;;19.20;99.90;;;;;;4941860;29;20481;-94
2021/07/08 02:04:40;;;;;;;5.53;3.07;;;19.10;99.90;;;;;;4951715;29;20442;-94
2021/07/08 02:40:52;;;;;;;3.77;3.47;;;18.80;99.90;;;;;;4907586;29;20415;-95
2021/07/08 02:43:34;;;;;;;3.33;3.10;;;18.80;99.90;;;;;;4959781;29;20479;-94
2021/07/08 02:49:59;;;;;;;4.07;3.37;;;18.70;99.90;;;;;;4937158;29;20434;-94
2021/07/08 02:53:05;;;;;;;3.70;3.40;;;18.60;99.90;;;;;;4949569;29;20455;-94
2021/07/08 03:17:04;;;;;;;4.43;4.10;;;18.60;99.90;;;;;;4938770;29;20410;-93
2021/07/08 03:30:00;;;;;;;5.47;3.60;;;18.50;99.90;;;;;;4896451;29;20441;-94
2021/07/08 04:50:57;;;;;;;10.10;8.00;;;18.60;99.90;;;;;;4748402;30;20456;-89
2021/07/08 05:28:21;;;;;;;8.00;7.20;;;19.00;99.90;;;;;;4888059;29;20486;-89
2021/07/08 05:31:36;;;;;;;11.23;8.60;;;19.00;99.90;;;;;;4868751;29;20441;-89
2021/07/08 05:37:48;;;;;;;9.23;7.97;;;19.00;99.90;;;;;;4819105;27;20540;-88
2021/07/08 05:50:57;;;;;;;10.73;6.73;;;19.00;99.90;;;;;;4875563;29;20446;-88
2021/07/08 06:03:22;;;;;;;7.40;6.57;;;19.00;99.90;;;;;;4881156;29;20440;-88
2021/07/08 06:06:43;;;;;;;7.30;6.70;;;19.00;99.90;;;;;;4915760;29;20590;-88
2021/07/08 06:09:27;;;;;;;7.10;6.40;;;19.00;99.90;;;;;;4852855;29;21188;-88
2021/07/08 06:11:54;;;;;;;6.33;5.83;;;19.00;99.90;;;;;;4916693;29;20476;-88
2021/07/08 06:14:21;;;;;;;6.93;5.80;;;19.10;99.90;;;;;;4916882;29;20483;-89
2021/07/08 06:16:48;;;;;;;5.00;4.57;;;19.10;99.90;;;;;;4932803;29;20511;-88
2021/07/08 06:19:15;;;;;;;5.77;5.27;;;19.20;99.90;;;;;;4916675;29;20532;-89
2021/07/08 06:21:41;;;;;;;6.17;5.47;;;19.20;99.90;;;;;;4915834;29;20447;-89
2021/07/08 06:24:08;;;;;;;5.33;4.67;;;19.20;99.90;;;;;;4916765;29;20463;-89
2021/07/08 06:26:37;;;;;;;7.50;5.93;;;19.30;99.90;;;;;;4917017;29;21183;-86
2021/07/08 06:29:04;;;;;;;5.60;5.10;;;19.40;99.90;;;;;;4920366;29;20441;-84
2021/07/08 06:31:30;;;;;;;6.73;6.20;;;19.40;99.90;;;;;;4918854;29;20449;-82
2021/07/08 06:33:57;;;;;;;7.27;5.53;;;19.50;99.90;;;;;;4919990;29;20455;-84
2021/07/08 06:36:24;;;;;;;7.67;6.30;;;19.40;99.90;;;;;;4921244;29;20471;-84
2021/07/08 06:38:50;;;;;;;7.43;6.73;;;19.40;99.90;;;;;;4920909;29;20825;-84
2021/07/08 06:41:17;;;;;;;7.53;6.83;;;19.40;99.90;;;;;;4921953;29;20457;-86
2021/07/08 06:43:45;;;;;;;6.40;5.80;;;19.50;99.90;;;;;;4919481;29;20822;-84
2021/07/08 06:46:16;;;;;;;10.73;7.00;;;19.30;99.90;;;;;;4919421;29;20459;-84
2021/07/08 06:48:43;;;;;;;7.43;6.67;;;19.30;99.90;;;;;;4919532;29;20457;-85
2021/07/08 06:51:10;;;;;;;6.63;6.03;;;19.40;99.90;;;;;;4922781;29;20441;-86
2021/07/08 06:53:38;;;;;;;6.63;6.03;;;19.60;99.90;;;;;;4920232;29;20484;-86
2021/07/08 06:56:05;;;;;;;8.90;6.23;;;19.60;99.90;;;;;;4918988;29;20536;-84
2021/07/08 06:58:31;;;;;;;6.50;5.83;;;19.70;99.90;;;;;;4920087;29;20447;-84
2021/07/08 07:01:01;;;;;;;8.60;7.30;;;19.70;99.90;;;;;;4921138;29;20460;-85
2021/07/08 07:03:28;;;;;;;7.07;5.63;;;19.70;99.90;;;;;;4930921;29;20479;-86
2021/07/08 07:05:55;;;;;;;16.70;7.20;;;19.70;99.90;;;;;;4927139;29;20469;-84
2021/07/08 07:08:22;;;;;;;6.50;5.90;;;19.60;99.90;;;;;;4930109;29;20513;-82
2021/07/08 07:10:48;;;;;;;8.17;6.10;;;19.50;99.90;;;;;;4938401;29;20444;-84
2021/07/08 07:13:15;;;;;;;7.63;6.27;;;19.50;99.90;;;;;;4924556;29;20492;-83
2021/07/08 07:15:42;;;;;;;9.50;7.00;;;19.70;99.90;;;;;;4935317;29;20475;-82
2021/07/08 07:18:10;;;;;;;8.57;6.63;;;19.80;99.90;;;;;;4935237;29;20514;-83
2021/07/08 07:20:36;;;;;;;6.20;5.60;;;19.90;99.90;;;;;;4924392;29;20453;-83
2021/07/08 07:23:03;;;;;;;8.40;6.17;;;20.10;99.90;;;;;;4923565;29;20442;-83
2021/07/08 07:25:32;;;;;;;7.80;6.00;;;20.30;99.90;;;;;;4918800;29;20492;-82
2021/07/08 07:27:59;;;;;;;7.80;4.97;;;20.40;99.90;;;;;;4921380;29;20909;-82
2021/07/08 07:30:27;;;;;;;7.70;5.73;;;20.60;99.90;;;;;;4920647;29;20446;-82
2021/07/08 07:32:56;;;;;;;11.43;7.50;;;20.70;99.90;;;;;;4921061;29;20489;-84
2021/07/08 07:35:27;;;;;;;6.43;5.80;;;20.80;99.90;;;;;;4930319;29;20481;-84
2021/07/08 07:37:55;;;;;;;10.23;6.67;;;21.00;99.90;;;;;;4924173;29;20971;-84
2021/07/08 07:40:29;;;;;;;6.57;5.90;;;21.20;99.90;;;;;;4919608;29;20965;-84
2021/07/08 07:42:57;;;;;;;8.27;7.47;;;21.20;99.90;;;;;;4917036;29;21003;-84
2021/07/08 07:45:27;;;;;;;8.80;6.77;;;21.20;99.90;;;;;;4919758;29;20485;-84
2021/07/08 07:47:54;;;;;;;9.20;7.40;;;21.20;99.90;;;;;;4923102;29;20446;-84
2021/07/08 07:50:24;;;;;;;8.70;6.47;;;21.20;99.90;;;;;;4924321;29;20467;-85
2021/07/08 07:52:56;;;;;;;7.40;6.80;;;21.10;99.90;;;;;;4909927;29;20635;-85
2021/07/08 07:55:26;;;;;;;10.17;9.10;;;21.20;99.90;;;;;;4912529;29;21011;-85
2021/07/08 07:57:54;;;;;;;11.40;7.70;;;21.10;99.90;;;;;;4913501;29;20455;-85
2021/07/08 08:00:23;;;;;;;11.83;8.53;;;21.20;99.90;;;;;;4918625;29;20458;-85
2021/07/08 08:02:52;;;;;;;9.27;6.57;;;21.40;99.90;;;;;;4923409;29;20944;-85
2021/07/08 08:10:54;;;;;;;7.27;6.57;;;21.50;99.90;;;;;;4926452;29;20844;-85
2021/07/08 08:13:22;;;;;;;6.83;6.13;;;21.50;99.90;;;;;;4925813;29;20549;-85
2021/07/08 08:15:51;;;;;;;7.60;6.63;;;21.50;99.90;;;;;;4922719;29;20489;-85
2021/07/08 08:18:20;;;;;;;10.20;7.67;;;21.40;99.90;;;;;;4928138;29;20450;-85
2021/07/08 08:20:48;;;;;;;9.30;7.07;;;21.40;99.90;;;;;;4923569;29;20937;-85
2021/07/08 08:23:17;;;;;;;8.03;7.23;;;21.40;99.90;;;;;;4922656;29;20546;-86
2021/07/08 08:25:45;;;;;;;6.93;6.23;;;21.30;99.90;;;;;;4924958;29;20506;-84
2021/07/08 08:28:13;;;;;;;8.83;7.40;;;21.40;99.90;;;;;;4927352;29;20466;-86
2021/07/08 08:30:41;;;;;;;10.23;5.83;;;21.50;99.90;;;;;;4924219;29;20455;-86
2021/07/08 08:33:12;;;;;;;9.33;6.03;;;21.80;99.90;;;;;;4925125;29;20829;-86
2021/07/08 08:35:40;;;;;;;9.60;7.07;;;22.20;99.90;;;;;;4923548;29;20554;-85
2021/07/08 08:38:09;;;;;;;6.60;6.00;;;22.60;99.90;;;;;;4925802;29;20448;-86
2021/07/08 08:40:39;;;;;;;8.63;7.70;;;22.70;99.90;;;;;;4929266;28;20548;-85
2021/07/08 08:43:07;;;;;;;8.63;7.83;;;23.10;99.90;;;;;;4925752;29;20543;-85
2021/07/08 08:58:34;;;;;;;9.30;7.10;;;24.50;99.90;;;;;;4912050;29;20440;-85
2021/07/08 09:01:34;;;;;;;;;;;;;;;;;;;;;
2021/07/08 09:14:45;;;;;;;9.17;7.33;;;24.60;99.90;;;;;;5829863;23;20453;-84
2021/07/08 09:27:48;;;;;;;7.57;6.77;;;24.40;99.90;;;;;;4845442;29;20422;-84
2021/07/08 09:37:41;;;;;;;6.13;5.67;;;24.20;99.90;;;;;;4897095;29;20570;-84
2021/07/08 09:49:05;;;;;;;7.27;5.93;;;24.20;99.90;;;;;;5083441;23;20498;-85
2021/07/08 09:51:33;;;;;;;6.43;5.50;;;24.00;99.90;;;;;;4922371;29;20460;-85
2021/07/08 09:54:07;;;;;;;5.30;4.90;;;24.00;99.90;;;;;;4923458;29;20557;-86
2021/07/08 09:56:49;;;;;;;6.27;5.33;;;23.80;99.90;;;;;;4921048;29;20471;-86
2021/07/08 09:59:20;;;;;;;6.33;5.33;;;24.00;99.90;;;;;;4918867;29;20458;-86
2021/07/08 10:01:57;;;;;;;6.00;5.40;;;24.30;99.90;;;;;;4919132;29;20463;-85
2021/07/08 10:04:31;;;;;;;6.13;5.03;;;24.20;99.90;;;;;;4919754;29;20523;-84
2021/07/08 10:07:00;;;;;;;6.13;4.90;;;24.20;99.90;;;;;;4919808;29;20458;-85
2021/07/08 10:09:30;;;;;;;4.63;4.23;;;24.10;99.90;;;;;;4919571;29;20458;-85
2021/07/08 10:11:57;;;;;;;4.50;4.13;;;24.00;99.90;;;;;;4917058;29;20458;-85
2021/07/08 10:14:25;;;;;;;4.80;4.23;;;24.20;99.90;;;;;;4918226;29;20490;-85
2021/07/08 10:16:55;;;;;;;4.40;4.00;;;24.20;99.90;;;;;;4927858;29;20460;-84
2021/07/08 10:19:24;;;;;;;6.73;3.73;;;24.40;99.90;;;;;;4924333;29;21059;-85
2021/07/08 10:21:53;;;;;;;4.57;4.23;;;24.60;99.90;;;;;;4922715;29;20454;-82
2021/07/08 10:24:20;;;;;;;3.97;3.60;;;24.90;99.90;;;;;;4921861;29;20473;-82
2021/07/08 10:26:48;;;;;;;4.60;4.17;;;25.20;99.90;;;;;;4921010;29;20971;-82
2021/07/08 10:29:16;;;;;;;4.57;4.27;;;25.40;99.90;;;;;;4923141;29;20458;-82
2021/07/08 10:31:48;;;;;;;4.83;4.43;;;25.60;99.90;;;;;;4922101;29;20457;-83
2021/07/08 10:34:16;;;;;;;3.90;3.57;;;25.70;99.80;;;;;;4922414;29;20519;-82
2021/07/08 10:36:45;;;;;;;4.60;4.20;;;25.90;99.70;;;;;;4920090;29;20457;-83
2021/07/08 10:39:15;;;;;;;6.17;3.97;;;26.50;99.10;;;;;;4919588;29;20458;-82
2021/07/08 10:41:52;;;;;;;4.60;4.20;;;26.60;98.60;;;;;;4919670;29;21170;-80
2021/07/08 10:44:46;;;;;;;4.80;4.40;;;27.20;97.90;;;;;;4920744;29;20471;-83
2021/07/08 10:47:40;;;;;;;4.33;3.93;;;27.00;97.10;;;;;;4920890;29;20462;-83
2021/07/08 10:50:27;;;;;;;6.40;5.80;;;26.60;97.00;;;;;;4922459;29;20455;-83
2021/07/08 10:52:54;;;;;;;5.73;5.17;;;26.30;97.10;;;;;;4919476;29;20457;-83
2021/07/08 10:55:41;;;;;;;6.10;4.77;;;26.20;97.60;;;;;;4919394;29;20470;-81
2021/07/08 10:58:28;;;;;;;4.57;3.90;;;25.90;97.80;;;;;;4919998;29;20462;-83
2021/07/08 11:00:55;;;;;;;3.27;3.03;;;25.30;99.00;;;;;;4918477;29;20462;-82
2021/07/08 11:03:42;;;;;;;4.10;3.00;;;24.50;98.90;;;;;;4933553;29;20454;-80
2021/07/08 11:06:20;;;;;;;3.50;3.20;;;24.10;99.80;;;;;;4917983;29;20459;-81
2021/07/08 11:08:57;;;;;;;3.20;3.00;;;23.90;99.90;;;;;;4926447;29;20456;-80
2021/07/08 11:12:03;;;;;;;3.50;3.20;;;23.90;99.90;;;;;;4923308;29;20555;-81
2021/07/08 11:14:34;;;;;;;3.60;3.20;;;23.90;99.90;;;;;;4921465;29;20531;-80
2021/07/08 11:17:20;;;;;;;3.83;3.53;;;24.00;99.90;;;;;;4923089;29;20458;-81
2021/07/08 11:19:50;;;;;;;4.20;3.33;;;24.10;99.90;;;;;;4923221;29;20490;-81
2021/07/08 11:22:39;;;;;;;2.87;2.50;;;24.20;99.90;;;;;;4926864;29;20475;-82
2021/07/08 11:25:08;;;;;;;2.30;2.10;;;24.30;99.90;;;;;;4924804;29;20480;-82
2021/07/08 11:27:42;;;;;;;2.70;2.50;;;24.40;99.10;;;;;;4931602;29;20447;-81
2021/07/08 11:30:30;;;;;;;2.23;2.03;;;24.30;99.10;;;;;;4931141;29;20451;-82
2021/07/08 11:33:00;;;;;;;2.37;2.10;;;24.30;98.60;;;;;;4923514;29;20505;-82
2021/07/08 11:35:31;;;;;;;4.80;2.33;;;24.50;98.80;;;;;;4931139;29;20482;-81
2021/07/08 11:38:00;;;;;;;2.43;2.00;;;24.70;98.40;;;;;;4912742;29;20455;-82
2021/07/08 11:40:31;;;;;;;3.83;2.37;;;24.90;97.90;;;;;;4911447;29;20515;-83
2021/07/08 11:42:59;;;;;;;3.03;2.63;;;25.00;97.70;;;;;;4911373;29;20479;-81
2021/07/08 11:45:26;;;;;;;3.80;3.37;;;24.80;97.50;;;;;;4909093;29;20562;-82
2021/07/08 11:47:55;;;;;;;3.40;2.60;;;24.80;98.40;;;;;;4931394;29;20486;-83
2021/07/08 11:50:23;;;;;;;3.80;3.37;;;24.90;98.70;;;;;;4931401;29;20451;-82
2021/07/08 11:53:05;;;;;;;4.00;2.70;;;25.00;98.20;;;;;;4932676;29;20450;-82
2021/07/08 11:55:33;;;;;;;4.37;3.50;;;24.90;98.00;;;;;;4931082;29;20470;-83
2021/07/08 11:58:03;;;;;;;5.60;3.40;;;25.10;98.40;;;;;;4925253;29;20557;-84
2021/07/08 12:00:32;;;;;;;9.73;3.53;;;25.20;98.10;;;;;;4924149;29;20509;-83
2021/07/08 12:02:59;;;;;;;2.83;2.50;;;25.20;97.10;;;;;;4926690;29;20487;-81
2021/07/08 12:05:27;;;;;;;3.50;3.20;;;25.50;96.70;;;;;;4924157;29;20480;-82
2021/07/08 12:07:57;;;;;;;3.03;2.70;;;25.60;96.60;;;;;;4924472;29;20453;-83
2021/07/08 12:10:29;;;;;;;4.57;2.77;;;25.40;98.30;;;;;;4924636;29;20490;-83
2021/07/08 12:12:56;;;;;;;3.40;3.10;;;25.30;99.60;;;;;;4924199;29;20459;-89
2021/07/08 12:15:28;;;;;;;3.50;2.60;;;25.00;99.90;;;;;;4923421;29;20518;-83
2021/07/08 12:17:57;;;;;;;3.93;2.77;;;24.70;99.90;;;;;;4922472;29;20455;-82
2021/07/08 12:20:24;;;;;;;3.30;2.90;;;24.70;99.90;;;;;;4927580;29;20451;-83
2021/07/08 12:22:56;;;;;;;2.17;1.90;;;24.50;99.90;;;;;;4931339;29;20453;-82
2021/07/08 12:25:23;;;;;;;3.00;1.93;;;24.50;99.90;;;;;;4931207;29;20494;-84
2021/07/08 12:27:51;;;;;;;4.90;1.63;;;24.60;99.90;;;;;;4932317;29;20464;-83
2021/07/08 12:30:20;;;;;;;2.93;1.97;;;24.70;99.90;;;;;;4932471;29;20825;-82
2021/07/08 12:32:48;;;;;;;3.60;1.90;;;24.80;99.90;;;;;;4925978;29;20453;-82
2021/07/08 12:35:15;;;;;;;2.67;2.03;;;24.70;99.90;;;;;;4922757;29;20505;-82
2021/07/08 12:37:42;;;;;;;4.80;1.70;;;24.70;99.90;;;;;;4922297;29;21000;-81
2021/07/08 12:55:27;;;;;;;2.20;2.00;;;25.30;99.90;;;;;;4967159;23;20509;-91
2021/07/08 12:58:59;;;;;;;1.60;1.50;;;25.20;99.90;;;;;;4932027;28;20520;-92
2021/07/08 13:12:02;;;;;;;3.57;1.77;;;25.20;99.90;;;;;;4870415;29;20480;-93
2021/07/08 13:15:16;;;;;;;2.90;2.10;;;25.30;99.90;;;;;;4872210;29;20552;-93
2021/07/08 14:16:08;;;;;;;2.50;2.30;;;26.90;97.70;;;;;;4912796;29;20471;-92
2021/07/08 14:58:44;;;;;;;6.53;2.40;;;26.10;95.80;;;;;;4932195;29;20477;-92
2021/07/08 15:01:24;;;;;;;2.97;2.77;;;25.90;96.00;;;;;;4928832;29;20452;-92
2021/07/08 15:04:07;;;;;;;4.20;3.90;;;25.90;96.40;;;;;;4926591;28;20428;-91
2021/07/08 15:06:42;;;;;;;4.53;3.30;;;26.00;96.40;;;;;;4931309;28;20430;-91
2021/07/08 15:15:41;;;;;;;3.70;3.40;;;26.40;95.60;;;;;;4919490;29;20544;-90
2021/07/08 15:18:08;;;;;;;3.40;3.20;;;26.50;95.50;;;;;;4912426;29;20450;-92
2021/07/08 15:20:36;;;;;;;3.63;3.43;;;26.50;95.30;;;;;;4918848;29;21063;-91
2021/07/08 15:23:04;;;;;;;3.60;3.30;;;26.60;95.10;;;;;;4919349;29;20947;-91
2021/07/08 15:25:47;;;;;;;5.40;3.57;;;26.30;95.30;;;;;;4917460;29;20809;-91
2021/07/08 15:28:30;;;;;;;4.73;3.47;;;26.10;95.60;;;;;;4930957;28;20455;-92
2021/07/08 15:30:57;;;;;;;3.90;3.60;;;25.70;95.90;;;;;;4931906;29;20485;-92
2021/07/08 15:33:32;;;;;;;3.30;3.10;;;25.50;96.30;;;;;;4935595;29;20479;-92
2021/07/08 15:35:59;;;;;;;3.27;3.07;;;25.30;96.40;;;;;;4951366;28;20472;-91
2021/07/08 15:38:32;;;;;;;3.50;3.30;;;25.20;96.40;;;;;;4940973;28;20435;-93
2021/07/08 15:41:03;;;;;;;3.93;3.63;;;25.20;96.90;;;;;;4933906;28;20511;-93
2021/07/08 15:43:34;;;;;;;3.50;3.23;;;25.00;97.20;;;;;;4934266;28;20439;-92
2021/07/08 15:46:16;;;;;;;4.30;3.87;;;25.00;97.10;;;;;;4934231;28;20447;-93
2021/07/08 15:52:01;;;;;;;3.87;3.57;;;24.80;97.80;;;;;;4889268;29;20453;-92
2021/07/08 15:54:37;;;;;;;4.80;3.70;;;24.70;98.20;;;;;;4899475;29;20502;-92
2021/07/08 15:57:20;;;;;;;4.63;4.23;;;24.50;98.70;;;;;;4920392;29;20453;-92
2021/07/08 15:59:49;;;;;;;4.27;3.83;;;24.50;99.10;;;;;;4918749;29;20509;-91
2021/07/08 16:05:10;;;;;;;4.47;4.17;;;24.60;99.20;;;;;;4920224;29;20437;-91
2021/07/08 16:07:57;;;;;;;4.33;4.00;;;24.70;99.10;;;;;;4919468;29;20464;-91
2021/07/08 16:10:27;;;;;;;3.90;3.27;;;24.70;98.70;;;;;;4894674;29;20526;-92
2021/07/08 16:13:16;;;;;;;3.57;3.37;;;24.80;98.70;;;;;;4920864;29;20451;-92
2021/07/08 16:15:57;;;;;;;3.70;3.40;;;24.80;98.70;;;;;;4923469;29;20503;-92
2021/07/08 16:18:59;;;;;;;3.30;3.10;;;24.90;98.60;;;;;;4925178;29;20514;-92
2021/07/08 16:21:53;;;;;;;;;;;;;;;;;;;;;
2021/07/08 17:02:11;;;;;;;3.93;3.63;;;23.40;99.90;;;;;;4911423;29;20570;-92
2021/07/08 17:14:48;;;;;;;3.80;3.60;;;22.90;99.90;;;;;;4865021;29;21098;-90
2021/07/08 17:27:14;;;;;;;3.80;3.60;;;22.50;99.90;;;;;;4907692;29;20543;-91
2021/07/08 18:13:44;;;;;;;5.50;5.10;;;21.30;99.90;;;;;;4667868;23;20964;-87
2021/07/08 18:16:21;;;;;;;;;;;;;;;;;;;;;
2021/07/08 18:28:45;;;;;;;6.30;5.80;;;21.10;99.90;;;;;;4813966;29;20493;-88
2021/07/08 18:31:12;;;;;;;4.37;3.97;;;21.00;99.90;;;;;;4851618;29;20484;-87
2021/07/08 18:33:40;;;;;;;4.83;4.53;;;20.90;99.90;;;;;;4886599;29;20461;-88
2021/07/08 18:36:09;;;;;;;4.60;4.17;;;20.90;99.90;;;;;;4923410;29;20482;-87
2021/07/08 18:38:37;;;;;;;5.00;4.53;;;20.90;99.90;;;;;;4925637;29;20462;-88
2021/07/08 18:41:05;;;;;;;4.83;4.33;;;20.90;99.90;;;;;;4925999;29;20474;-88
2021/07/08 18:43:33;;;;;;;4.77;4.47;;;20.80;99.90;;;;;;4926650;29;20453;-87
2021/07/08 18:46:04;;;;;;;4.40;3.43;;;20.80;99.90;;;;;;4923924;29;20454;-88
2021/07/08 18:48:32;;;;;;;3.90;3.60;;;20.80;99.90;;;;;;4921551;29;20793;-88
2021/07/08 18:51:15;;;;;;;6.60;5.60;;;20.70;99.90;;;;;;4920558;29;20471;-88
2021/07/08 19:21:28;;;;;;;4.40;4.10;;;20.40;99.90;;;;;;4919886;29;20465;-88
2021/07/08 19:24:41;;;;;;;4.50;3.87;;;20.30;99.90;;;;;;4909688;29;20493;-89
2021/07/08 19:31:07;;;;;;;4.40;3.97;;;20.20;99.90;;;;;;4820881;29;20483;-88
2021/07/08 19:37:20;;;;;;;5.27;4.07;;;20.10;99.90;;;;;;4892074;29;20499;-86
2021/07/08 19:40:21;;;;;;;3.70;3.17;;;20.10;99.90;;;;;;4920706;29;20468;-87
2021/07/08 19:42:57;;;;;;;4.03;3.70;;;20.00;99.90;;;;;;4918244;29;20634;-88
2021/07/08 19:45:49;;;;;;;7.00;3.40;;;20.00;99.90;;;;;;4926447;29;20526;-87
2021/07/08 19:54:01;;;;;;;4.80;2.90;;;20.00;99.90;;;;;;3069935;27;20496;-85
2021/07/08 19:56:29;;;;;;;6.40;3.97;;;20.00;99.90;;;;;;4928224;29;20566;-85
2021/07/08 19:58:56;;;;;;;3.60;3.30;;;20.00;99.90;;;;;;4929860;29;20451;-84
2021/07/08 20:01:23;;;;;;;3.93;3.30;;;20.00;99.90;;;;;;4932391;29;20479;-83
2021/07/08 20:03:49;;;;;;;4.90;3.60;;;20.00;99.90;;;;;;4937916;29;20449;-83
2021/07/08 20:06:16;;;;;;;3.30;3.00;;;20.00;99.90;;;;;;4930660;29;20450;-85
2021/07/08 20:08:43;;;;;;;4.77;3.80;;;20.00;99.90;;;;;;4929131;29;20448;-83
2021/07/08 20:11:10;;;;;;;3.67;3.37;;;20.00;99.90;;;;;;4926948;29;20481;-85
2021/07/08 20:13:38;;;;;;;4.07;3.77;;;19.90;99.90;;;;;;4926935;29;20446;-85
2021/07/08 20:16:05;;;;;;;3.33;3.07;;;19.90;99.90;;;;;;4926054;29;20646;-82
2021/07/08 20:18:32;;;;;;;4.20;3.20;;;19.90;99.90;;;;;;4922627;29;20556;-85
2021/07/08 20:20:59;;;;;;;4.60;4.03;;;19.90;99.90;;;;;;4921982;29;20480;-84
2021/07/08 20:23:25;;;;;;;5.20;3.50;;;19.80;99.90;;;;;;4922397;29;20463;-84
2021/07/08 20:25:52;;;;;;;4.13;3.83;;;19.80;99.90;;;;;;4937427;29;20436;-82
2021/07/08 20:28:20;;;;;;;5.03;4.50;;;19.80;99.90;;;;;;4932851;29;20457;-83
2021/07/08 20:30:48;;;;;;;4.53;4.17;;;19.80;99.90;;;;;;4927890;29;20547;-86
2021/07/08 20:33:17;;;;;;;4.33;3.90;;;19.80;99.90;;;;;;4931287;29;20982;-83
2021/07/08 20:35:44;;;;;;;4.73;4.33;;;19.80;99.90;;;;;;4933109;29;20473;-84
2021/07/08 20:38:11;;;;;;;4.63;4.10;;;19.90;99.90;;;;;;4935123;29;20490;-84
2021/07/08 20:40:38;;;;;;;4.30;3.67;;;19.90;99.90;;;;;;4922847;29;20466;-85
2021/07/08 20:43:05;;;;;;;3.90;3.60;;;20.00;99.90;;;;;;4930719;29;20449;-85
2021/07/08 20:45:35;;;;;;;3.97;3.60;;;19.90;99.90;;;;;;4933224;29;20448;-85
2021/07/08 20:48:06;;;;;;;4.13;3.73;;;19.90;99.90;;;;;;4929859;29;20457;-85
2021/07/08 20:50:34;;;;;;;4.97;4.00;;;19.90;99.90;;;;;;4928624;29;20467;-84
2021/07/08 20:53:01;;;;;;;4.23;3.53;;;19.90;99.90;;;;;;4928890;29;20944;-85
2021/07/08 20:55:28;;;;;;;4.90;3.50;;;19.90;99.90;;;;;;4928285;29;20485;-83
2021/07/08 20:57:55;;;;;;;4.33;3.50;;;19.80;99.90;;;;;;4926007;29;20464;-84
2021/07/08 21:00:22;;;;;;;4.30;3.37;;;19.80;99.90;;;;;;4924984;29;20481;-84
2021/07/08 21:02:49;;;;;;;5.07;3.77;;;19.80;99.90;;;;;;4921633;29;20457;-83
2021/07/08 21:05:17;;;;;;;5.30;3.93;;;19.80;99.90;;;;;;4921962;29;20446;-84
2021/07/08 21:07:45;;;;;;;3.77;3.40;;;19.80;99.90;;;;;;4937770;29;20455;-83
2021/07/08 21:10:15;;;;;;;6.87;5.10;;;19.70;99.90;;;;;;4929551;29;20627;-85
2021/07/08 21:12:43;;;;;;;3.97;3.63;;;19.70;99.90;;;;;;4927724;29;20463;-85
2021/07/08 21:15:13;;;;;;;3.53;3.23;;;19.70;99.90;;;;;;4919630;29;20477;-85
2021/07/08 21:17:40;;;;;;;3.53;3.23;;;19.60;99.90;;;;;;4918812;29;20445;-84
2021/07/08 21:20:08;;;;;;;5.80;4.40;;;19.50;99.90;;;;;;4920348;29;20472;-85
2021/07/08 21:22:38;;;;;;;4.90;3.30;;;19.50;99.90;;;;;;4920868;29;20471;-87
2021/07/08 21:25:07;;;;;;;3.23;3.03;;;19.50;99.90;;;;;;4918491;29;20450;-87
2021/07/08 21:27:34;;;;;;;4.07;3.67;;;19.40;99.90;;;;;;4921160;29;20578;-89
2021/07/08 21:30:04;;;;;;;3.97;3.67;;;19.30;99.90;;;;;;4915354;29;20943;-89
2021/07/08 21:32:32;;;;;;;4.23;3.73;;;19.40;99.90;;;;;;4912413;29;20886;-89
2021/07/08 21:35:00;;;;;;;3.90;3.57;;;19.30;99.90;;;;;;4916926;29;20475;-90
2021/07/08 21:37:29;;;;;;;4.20;3.80;;;19.30;99.90;;;;;;4914350;29;20483;-87
2021/07/08 21:39:58;;;;;;;5.80;4.20;;;19.30;99.90;;;;;;4918844;29;20937;-89
2021/07/08 21:42:27;;;;;;;3.90;3.60;;;19.20;99.90;;;;;;4912458;29;20557;-89
2021/07/08 21:44:57;;;;;;;3.80;3.50;;;19.20;99.90;;;;;;4914508;29;20457;-88
2021/07/08 21:47:26;;;;;;;3.00;2.70;;;19.20;99.90;;;;;;4917486;29;20451;-86
2021/07/08 21:49:55;;;;;;;3.93;3.30;;;19.10;99.90;;;;;;4926891;29;20461;-87
2021/07/08 21:52:23;;;;;;;5.33;3.50;;;19.10;99.90;;;;;;4915373;29;20467;-86
2021/07/08 21:54:51;;;;;;;6.13;4.60;;;19.10;99.90;;;;;;4915663;29;20461;-87
2021/07/08 21:57:48;;;;;;;4.00;3.53;;;19.10;99.90;;;;;;4914510;29;20876;-88
2021/07/08 22:00:22;;;;;;;6.90;3.40;;;19.00;99.90;;;;;;4909802;29;20441;-88
2021/07/08 22:05:33;;;;;;;4.70;3.87;;;18.80;99.90;;;;;;4900528;29;20449;-88
2021/07/08 22:08:04;;;;;;;5.97;4.70;;;18.80;99.90;;;;;;4915243;29;20483;-88
2021/07/08 22:11:25;;;;;;;7.00;4.40;;;18.70;99.90;;;;;;4924025;29;20475;-88
2021/07/08 22:17:33;;;;;;;7.47;5.50;;;18.60;99.90;;;;;;4938642;28;20471;-87
2021/07/08 22:25:56;;;;;;;4.13;3.83;;;18.60;99.90;;;;;;4910754;29;20927;-87
2021/07/08 22:28:33;;;;;;;5.07;4.00;;;18.50;99.90;;;;;;4921719;29;20479;-88
2021/07/08 22:31:10;;;;;;;5.60;4.50;;;18.50;99.90;;;;;;4920179;29;20459;-87
2021/07/08 22:33:39;;;;;;;4.00;3.43;;;18.40;99.90;;;;;;4920834;29;20460;-88
2021/07/08 22:36:11;;;;;;;4.33;3.77;;;18.40;99.90;;;;;;4920252;29;20573;-88
2021/07/08 22:38:47;;;;;;;6.53;3.77;;;18.40;99.90;;;;;;4922697;29;20455;-89
2021/07/08 22:41:17;;;;;;;3.50;3.20;;;18.40;99.90;;;;;;4926790;29;20478;-87
2021/07/08 22:43:50;;;;;;;3.70;3.40;;;18.30;99.90;;;;;;4917618;29;20876;-86
2021/07/08 22:46:36;;;;;;;5.77;3.27;;;18.30;99.90;;;;;;4918732;29;20488;-87
2021/07/08 22:55:13;;;;;;;4.57;4.13;;;18.20;99.90;;;;;;4916809;29;20808;-87
2021/07/08 22:57:43;;;;;;;5.27;3.73;;;18.10;99.90;;;;;;4916491;29;20519;-86
2021/07/08 23:03:19;;;;;;;5.07;4.30;;;18.00;99.90;;;;;;4925247;29;20442;-88
2021/07/08 23:06:04;;;;;;;4.23;3.67;;;18.00;99.90;;;;;;4922498;29;20447;-88
2021/07/08 23:08:36;;;;;;;5.30;4.80;;;17.90;99.90;;;;;;4926388;29;20556;-88
2021/07/08 23:11:18;;;;;;;5.20;4.20;;;18.00;99.90;;;;;;4919272;29;20851;-88
2021/07/08 23:13:50;;;;;;;4.93;3.70;;;17.90;99.90;;;;;;4917092;29;20448;-88
2021/07/08 23:16:26;;;;;;;4.87;4.47;;;17.90;99.90;;;;;;4918544;29;20474;-88
2021/07/08 23:18:59;;;;;;;5.07;3.73;;;17.80;99.90;;;;;;4920243;29;20805;-88
2021/07/08 23:21:36;;;;;;;5.87;4.20;;;17.80;99.90;;;;;;4919979;29;20482;-87
2021/07/08 23:24:13;;;;;;;4.70;4.00;;;17.80;99.90;;;;;;4920018;29;20554;-87
2021/07/08 23:26:42;;;;;;;3.93;3.63;;;17.80;99.90;;;;;;4922451;29;20498;-87
2021/07/08 23:29:12;;;;;;;4.53;3.43;;;17.70;99.90;;;;;;4920181;29;20462;-88
2021/07/08 23:34:56;;;;;;;7.10;3.77;;;17.70;99.90;;;;;;4892162;29;20937;-88
2021/07/08 23:37:23;;;;;;;4.50;3.90;;;17.60;99.90;;;;;;4902133;29;20976;-88
2021/07/08 23:40:08;;;;;;;4.13;3.80;;;17.50;99.90;;;;;;4901975;29;20483;-88
